createdAt,value
2023-03-21T00:00:59.240Z,57.78
2023-03-21T00:03:28.904Z,57.94
2023-03-21T00:05:59.290Z,58.08
2023-03-21T00:08:27.543Z,58.26
2023-03-21T00:11:01.023Z,58.38
2023-03-21T00:13:33.026Z,58.59
2023-03-21T00:16:19.392Z,58.66
2023-03-21T00:18:53.965Z,58.76
2023-03-21T00:21:43.969Z,58.91
2023-03-21T00:24:11.024Z,59.02
2023-03-21T00:26:40.463Z,59.16
2023-03-21T00:29:09.109Z,59.24
2023-03-21T00:31:40.645Z,59.35
2023-03-21T00:36:39.194Z,59.65
2023-03-21T00:39:09.386Z,59.75
2023-03-21T00:41:44.832Z,59.85
2023-03-21T00:44:16.114Z,59.89
2023-03-21T00:46:57.055Z,60.04
2023-03-21T00:49:34.341Z,60.19
2023-03-21T00:52:34.386Z,60.31
2023-03-21T00:54:55.113Z,60.33
2023-03-21T00:57:37.558Z,60.42
2023-03-21T01:00:12.123Z,60.49
2023-03-21T01:03:14.201Z,60.54
2023-03-21T01:06:04.321Z,60.62
2023-03-21T01:08:51.201Z,60.67
2023-03-21T01:11:26.006Z,60.71
2023-03-21T01:14:04.194Z,60.70
2023-03-21T01:16:39.617Z,60.82
2023-03-21T01:19:14.940Z,60.84
2023-03-21T01:21:50.711Z,60.87
2023-03-21T01:24:19.305Z,61.01
2023-03-21T01:26:48.527Z,61.10
2023-03-21T01:29:17.086Z,61.15
2023-03-21T01:31:45.687Z,61.20
2023-03-21T01:34:14.045Z,61.30
2023-03-21T01:37:02.488Z,61.41
2023-03-21T01:39:35.048Z,61.48
2023-03-21T01:42:03.356Z,61.50
2023-03-21T01:44:32.143Z,61.57
2023-03-21T01:47:11.068Z,61.57
2023-03-21T01:49:51.019Z,61.61
2023-03-21T01:52:38.116Z,61.66
2023-03-21T01:55:16.515Z,61.61
2023-03-21T01:58:05.863Z,61.61
2023-03-21T02:00:49.248Z,61.65
2023-03-21T02:03:35.340Z,61.82
2023-03-21T02:06:37.463Z,61.87
2023-03-21T02:09:16.784Z,61.83
2023-03-21T02:11:51.058Z,61.91
2023-03-21T02:14:28.977Z,61.94
2023-03-21T02:17:20.016Z,61.94
2023-03-21T02:20:02.787Z,61.95
2023-03-21T02:23:10.798Z,61.99
2023-03-21T02:25:57.099Z,62.03
2023-03-21T02:28:46.288Z,62.12
2023-03-21T02:31:54.631Z,62.20
2023-03-21T02:34:30.188Z,62.27
2023-03-21T02:37:02.784Z,62.29
2023-03-21T02:39:54.140Z,62.22
2023-03-21T02:42:33.819Z,62.25
2023-03-21T02:45:04.167Z,62.19
2023-03-21T02:47:41.037Z,62.23
2023-03-21T02:50:53.095Z,62.21
2023-03-21T02:53:23.408Z,62.29
2023-03-21T02:55:53.018Z,62.29
2023-03-21T02:58:39.285Z,62.30
2023-03-21T03:01:09.236Z,62.33
2023-03-21T03:03:45.185Z,62.44
2023-03-21T03:06:21.877Z,62.52
2023-03-21T03:09:02.838Z,62.56
2023-03-21T03:11:33.699Z,62.76
2023-03-21T03:14:44.254Z,62.81
2023-03-21T03:17:46.583Z,62.94
2023-03-21T03:20:23.525Z,63.06
2023-03-21T03:22:59.926Z,63.14
2023-03-21T03:25:42.973Z,63.31
2023-03-21T03:28:15.969Z,63.40
2023-03-21T03:30:57.462Z,63.47
2023-03-21T03:33:34.887Z,63.62
2023-03-21T03:36:07.168Z,63.71
2023-03-21T03:38:37.486Z,63.83
2023-03-21T03:41:11.061Z,63.85
2023-03-21T03:43:51.046Z,64.00
2023-03-21T03:46:29.372Z,64.03
2023-03-21T03:49:05.664Z,64.15
2023-03-21T03:51:51.915Z,64.21
2023-03-21T03:54:32.986Z,64.27
2023-03-21T03:57:05.191Z,64.47
2023-03-21T03:59:37.356Z,64.36
2023-03-21T04:02:20.633Z,64.37
2023-03-21T04:04:53.097Z,64.42
2023-03-21T04:07:22.597Z,64.45
2023-03-21T04:09:53.638Z,64.53
2023-03-21T04:12:22.453Z,64.58
2023-03-21T04:15:23.318Z,64.67
2023-03-21T04:17:57.677Z,64.63
2023-03-21T04:20:36.079Z,64.64
2023-03-21T04:23:06.618Z,64.68
2023-03-21T04:25:44.627Z,64.75
2023-03-21T04:28:16.279Z,64.85
2023-03-21T04:31:01.202Z,64.92
2023-03-21T04:33:38.641Z,64.95
2023-03-21T04:36:09.547Z,65.02
2023-03-21T04:38:39.292Z,65.10
2023-03-21T04:41:08.051Z,65.17
2023-03-21T04:43:38.599Z,65.30
2023-03-21T04:46:07.488Z,65.32
2023-03-21T04:48:35.881Z,65.42
2023-03-21T04:51:07.035Z,65.60
2023-03-21T04:53:36.217Z,65.74
2023-03-21T04:56:04.871Z,65.78
2023-03-21T04:58:33.701Z,65.90
2023-03-21T05:01:02.700Z,66.02
2023-03-21T05:03:40.156Z,66.12
2023-03-21T05:06:09.541Z,66.22
2023-03-21T05:08:37.846Z,66.30
2023-03-21T05:11:07.295Z,66.48
2023-03-21T05:13:36.231Z,66.61
2023-03-21T05:16:05.549Z,66.78
2023-03-21T05:18:38.969Z,66.69
2023-03-21T05:21:13.694Z,66.78
2023-03-21T05:23:42.072Z,66.86
2023-03-21T05:26:11.048Z,66.79
2023-03-21T05:28:48.431Z,66.84
2023-03-21T05:31:18.595Z,66.84
2023-03-21T05:33:48.876Z,66.77
2023-03-21T05:36:24.627Z,66.74
2023-03-21T05:38:52.806Z,66.71
2023-03-21T05:41:21.593Z,66.71
2023-03-21T05:43:50.162Z,66.70
2023-03-21T05:46:18.390Z,66.72
2023-03-21T05:48:48.639Z,66.66
2023-03-21T05:51:19.127Z,66.74
2023-03-21T05:53:47.522Z,66.83
2023-03-21T05:56:16.883Z,66.85
2023-03-21T05:58:50.454Z,66.84
2023-03-21T06:01:19.372Z,66.91
2023-03-21T06:03:53.872Z,67.05
2023-03-21T06:06:28.806Z,67.12
2023-03-21T06:08:58.592Z,67.13
2023-03-21T06:11:29.170Z,67.00
2023-03-21T06:14:13.089Z,67.12
2023-03-21T06:16:45.596Z,67.11
2023-03-21T06:19:14.873Z,66.82
2023-03-21T06:22:00.276Z,66.74
2023-03-21T06:24:29.061Z,66.68
2023-03-21T06:26:57.650Z,66.48
2023-03-21T06:29:27.933Z,66.27
2023-03-21T06:31:56.139Z,66.10
2023-03-21T06:34:24.729Z,65.98
2023-03-21T06:37:00.513Z,65.67
2023-03-21T06:39:33.272Z,65.52
2023-03-21T06:42:01.674Z,65.35
2023-03-21T06:44:34.478Z,65.18
2023-03-21T06:47:06.747Z,64.91
2023-03-21T06:49:35.402Z,64.62
2023-03-21T06:52:10.089Z,64.47
2023-03-21T06:54:38.996Z,64.17
2023-03-21T06:57:13.727Z,63.94
2023-03-21T06:59:43.288Z,63.77
2023-03-21T07:02:19.150Z,63.57
2023-03-21T07:04:52.183Z,63.42
2023-03-21T07:07:27.212Z,63.31
2023-03-21T07:10:11.493Z,63.07
2023-03-21T07:12:47.225Z,63.09
2023-03-21T07:15:20.200Z,63.13
2023-03-21T07:17:48.867Z,62.96
2023-03-21T07:20:17.548Z,62.76
2023-03-21T07:22:46.502Z,62.53
2023-03-21T07:25:20.900Z,62.50
2023-03-21T07:27:51.142Z,62.26
2023-03-21T07:30:20.743Z,62.16
2023-03-21T07:32:51.179Z,61.89
2023-03-21T07:35:19.781Z,61.69
2023-03-21T07:37:49.126Z,61.53
2023-03-21T07:40:18.423Z,61.44
2023-03-21T07:42:48.759Z,61.27
2023-03-21T07:45:27.485Z,61.02
2023-03-21T07:47:56.192Z,60.81
2023-03-21T07:50:25.769Z,60.09
2023-03-21T07:52:54.485Z,59.31
2023-03-21T07:55:22.936Z,58.90
2023-03-21T07:57:55.746Z,58.23
2023-03-21T08:00:24.215Z,57.58
2023-03-21T08:02:58.747Z,57.35
2023-03-21T08:05:37.610Z,57.12
2023-03-21T08:08:07.248Z,56.81
2023-03-21T08:10:35.341Z,56.59
2023-03-21T08:20:45.326Z,54.43
2023-03-21T08:23:15.141Z,53.72
2023-03-21T08:25:43.380Z,53.23
2023-03-21T08:28:11.997Z,52.67
2023-03-21T08:30:40.846Z,52.77
2023-03-21T08:33:09.261Z,52.72
2023-03-21T08:35:47.114Z,52.75
2023-03-21T08:38:17.073Z,52.76
2023-03-21T08:40:46.084Z,52.94
2023-03-21T08:43:18.143Z,52.46
2023-03-21T08:45:46.592Z,52.32
2023-03-21T08:48:20.349Z,51.73
2023-03-21T08:50:49.500Z,51.26
2023-03-21T08:53:18.783Z,50.66
2023-03-21T08:55:46.967Z,50.65
2023-03-21T08:58:15.704Z,50.21
2023-03-21T09:00:44.852Z,49.59
2023-03-21T09:03:14.730Z,49.21
2023-03-21T09:05:45.788Z,49.02
2023-03-21T09:08:14.294Z,49.06
2023-03-21T09:10:42.480Z,49.27
2023-03-21T09:13:18.073Z,49.24
2023-03-21T09:15:47.356Z,49.43
2023-03-21T09:18:18.230Z,49.28
2023-03-21T09:20:55.581Z,48.73
2023-03-21T09:23:24.544Z,48.44
2023-03-21T09:25:52.662Z,48.19
2023-03-21T09:28:21.471Z,47.70
2023-03-21T09:30:49.878Z,47.30
2023-03-21T09:33:19.272Z,47.24
2023-03-21T09:35:47.983Z,47.48
2023-03-21T09:38:17.484Z,47.37
2023-03-21T09:40:49.928Z,46.91
2023-03-21T09:43:22.334Z,46.42
2023-03-21T09:46:06.523Z,46.47
2023-03-21T09:49:13.109Z,46.34
2023-03-21T09:51:48.900Z,46.21
2023-03-21T09:54:28.111Z,45.54
2023-03-21T09:56:58.261Z,45.14
2023-03-21T09:59:30.809Z,45.06
2023-03-21T10:02:00.645Z,44.80
2023-03-21T10:04:32.512Z,44.74
2023-03-21T10:07:02.219Z,43.92
2023-03-21T10:09:30.473Z,43.37
2023-03-21T10:12:09.889Z,42.89
2023-03-21T10:14:40.689Z,42.75
2023-03-21T10:17:29.212Z,42.74
2023-03-21T10:20:12.224Z,42.05
2023-03-21T10:22:43.757Z,41.37
2023-03-21T10:25:15.556Z,41.19
2023-03-21T10:27:45.431Z,40.73
2023-03-21T10:30:38.013Z,40.88
2023-03-21T10:33:09.604Z,40.61
2023-03-21T10:35:38.274Z,40.86
2023-03-21T10:38:07.138Z,40.81
2023-03-21T10:40:35.823Z,40.15
2023-03-21T10:43:26.019Z,39.95
2023-03-21T10:45:54.761Z,40.11
2023-03-21T10:48:23.866Z,39.81
2023-03-21T10:50:53.306Z,39.81
2023-03-21T10:53:43.237Z,39.73
2023-03-21T10:56:11.697Z,39.45
2023-03-21T10:58:45.561Z,39.09
2023-03-21T11:01:15.907Z,38.90
2023-03-21T11:03:46.874Z,38.58
2023-03-21T11:06:22.629Z,38.56
2023-03-21T11:08:54.190Z,38.76
2023-03-21T11:11:27.543Z,39.07
2023-03-21T11:14:07.264Z,39.05
2023-03-21T11:16:41.191Z,38.90
2023-03-21T11:19:33.727Z,38.12
2023-03-21T11:22:07.906Z,38.15
2023-03-21T11:24:37.588Z,38.29
2023-03-21T11:27:08.989Z,38.19
2023-03-21T11:29:42.792Z,38.03
2023-03-21T11:32:13.063Z,38.31
2023-03-21T11:35:00.572Z,38.09
2023-03-21T11:37:35.053Z,38.05
2023-03-21T11:40:23.669Z,38.18
2023-03-21T11:42:53.549Z,38.14
2023-03-21T11:45:23.581Z,38.07
2023-03-21T11:47:57.863Z,37.91
2023-03-21T12:00:15.917Z,36.67
2023-03-21T12:03:10.806Z,36.65
2023-03-21T12:05:56.415Z,36.80
2023-03-21T12:09:04.099Z,37.06
2023-03-21T12:11:50.508Z,37.47
2023-03-21T12:14:27.340Z,37.95
2023-03-21T12:17:27.579Z,38.19
2023-03-21T12:20:08.192Z,38.92
2023-03-21T12:22:58.043Z,38.81
2023-03-21T12:25:46.938Z,37.64
2023-03-21T12:28:32.555Z,37.20
2023-03-21T12:31:11.091Z,37.61
2023-03-21T12:33:49.730Z,37.80
2023-03-21T12:36:30.116Z,37.47
2023-03-21T12:39:24.968Z,37.00
2023-03-21T12:41:59.467Z,37.08
2023-03-21T12:44:29.615Z,37.26
2023-03-21T12:47:03.471Z,37.18
2023-03-21T12:49:39.304Z,37.17
2023-03-21T12:52:10.747Z,36.98
2023-03-21T12:54:41.830Z,36.77
2023-03-21T12:57:16.074Z,36.47
2023-03-21T13:00:21.813Z,36.01
2023-03-21T13:03:02.965Z,35.65
2023-03-21T13:05:38.690Z,35.23
2023-03-21T13:08:23.736Z,35.05
2023-03-21T13:10:51.833Z,34.94
2023-03-21T13:13:26.120Z,34.88
2023-03-21T13:16:10.545Z,34.52
2023-03-21T13:18:50.131Z,34.22
2023-03-21T13:21:34.061Z,34.03
2023-03-21T13:24:28.962Z,33.87
2023-03-21T13:27:00.689Z,34.33
2023-03-21T13:29:32.290Z,34.73
2023-03-21T13:32:16.608Z,34.77
2023-03-21T13:34:44.674Z,35.03
2023-03-21T13:37:15.730Z,35.55
2023-03-21T13:39:46.093Z,35.84
2023-03-21T13:42:23.977Z,36.21
2023-03-21T13:45:00.723Z,36.66
2023-03-21T13:47:36.076Z,37.27
2023-03-21T13:50:19.429Z,37.46
2023-03-21T13:53:15.504Z,36.90
2023-03-21T13:55:44.925Z,36.37
2023-03-21T13:58:24.370Z,36.75
2023-03-21T14:01:23.707Z,37.21
2023-03-21T14:03:59.805Z,37.09
2023-03-21T14:06:42.785Z,36.35
2023-03-21T14:09:17.523Z,36.44
2023-03-21T14:11:47.277Z,36.77
2023-03-21T14:14:20.634Z,37.13
2023-03-21T14:19:19.244Z,37.12
2023-03-21T14:21:51.689Z,36.98
2023-03-21T14:24:21.186Z,36.65
2023-03-21T14:26:50.883Z,36.55
2023-03-21T14:29:27.574Z,36.23
2023-03-21T14:31:56.626Z,35.98
2023-03-21T14:34:27.197Z,35.93
2023-03-21T14:36:58.563Z,35.58
2023-03-21T14:39:29.458Z,35.61
2023-03-21T14:42:05.576Z,35.63
2023-03-21T14:44:54.048Z,35.81
2023-03-21T14:47:25.349Z,36.28
2023-03-21T14:49:53.628Z,36.46
2023-03-21T14:52:27.380Z,36.57
2023-03-21T14:54:56.283Z,36.90
2023-03-21T14:57:29.050Z,37.24
2023-03-21T14:59:59.660Z,37.44
2023-03-21T15:02:33.895Z,37.76
2023-03-21T15:05:09.765Z,37.68
2023-03-21T15:07:39.224Z,38.06
2023-03-21T15:10:14.422Z,37.94
2023-03-21T15:12:57.329Z,37.99
2023-03-21T15:15:27.638Z,37.95
2023-03-21T15:17:58.395Z,38.00
2023-03-21T15:20:31.287Z,38.40
2023-03-21T15:23:03.266Z,38.67
2023-03-21T15:25:34.090Z,38.94
2023-03-21T15:28:02.375Z,39.23
2023-03-21T15:30:31.869Z,39.46
2023-03-21T15:33:07.900Z,39.68
2023-03-21T15:35:42.353Z,39.81
2023-03-21T15:38:29.923Z,40.09
2023-03-21T15:41:20.590Z,40.30
2023-03-21T15:44:02.763Z,40.51
2023-03-21T15:46:35.544Z,40.82
2023-03-21T15:49:14.617Z,41.05
2023-03-21T15:51:52.963Z,41.23
2023-03-21T15:54:27.426Z,41.45
2023-03-21T15:57:01.686Z,41.59
2023-03-21T15:59:37.335Z,42.08
2023-03-21T16:02:19.462Z,42.40
2023-03-21T16:05:01.355Z,42.67
2023-03-21T16:07:36.686Z,43.09
2023-03-21T16:10:08.335Z,43.42
2023-03-21T16:12:38.841Z,43.65
2023-03-21T16:15:11.410Z,43.85
2023-03-21T16:17:47.556Z,44.21
2023-03-21T16:20:22.363Z,44.31
2023-03-21T16:22:53.325Z,44.70
2023-03-21T16:25:24.341Z,45.12
2023-03-21T16:27:56.364Z,45.30
2023-03-21T16:30:28.623Z,45.43
2023-03-21T16:33:04.356Z,45.70
2023-03-21T16:35:37.438Z,45.92
2023-03-21T16:38:11.140Z,46.11
2023-03-21T16:40:43.442Z,46.17
2023-03-21T16:43:15.470Z,46.43
2023-03-21T16:45:50.526Z,46.65
2023-03-21T16:48:22.490Z,46.99
2023-03-21T16:50:54.408Z,47.21
2023-03-21T16:53:25.373Z,47.64
2023-03-21T16:56:03.399Z,47.80
2023-03-21T17:06:15.141Z,48.35
2023-03-21T17:08:44.090Z,48.54
2023-03-21T17:11:16.564Z,48.55
2023-03-21T17:13:44.850Z,48.52
2023-03-21T17:16:14.055Z,48.50
2023-03-21T17:18:47.586Z,48.45
2023-03-21T17:21:20.717Z,48.47
2023-03-21T17:23:48.917Z,48.41
2023-03-21T17:26:22.987Z,48.36
2023-03-21T17:28:54.867Z,48.29
2023-03-21T17:31:25.433Z,48.27
2023-03-21T17:33:53.525Z,48.29
2023-03-21T17:36:27.380Z,48.23
2023-03-21T17:38:55.766Z,48.19
2023-03-21T17:41:24.115Z,48.36
2023-03-21T17:43:55.807Z,48.34
2023-03-21T17:46:25.296Z,48.36
2023-03-21T17:48:53.695Z,48.38
2023-03-21T17:51:26.177Z,48.54
2023-03-21T17:53:54.268Z,48.53
2023-03-21T17:56:32.144Z,48.61
2023-03-21T17:59:02.217Z,48.61
2023-03-21T18:01:35.531Z,48.68
2023-03-21T18:04:05.274Z,48.96
2023-03-21T18:06:35.326Z,49.15
2023-03-21T18:09:07.207Z,49.34
2023-03-21T18:11:39.261Z,49.46
2023-03-21T18:14:16.561Z,49.63
2023-03-21T18:16:47.909Z,49.80
2023-03-21T18:19:16.232Z,50.07
2023-03-21T18:21:47.497Z,50.16
2023-03-21T18:24:16.677Z,50.37
2023-03-21T18:26:46.141Z,50.31
2023-03-21T18:30:15.763Z,50.45
2023-03-21T18:32:08.545Z,50.56
2023-03-21T18:34:38.794Z,50.72
2023-03-21T18:37:08.557Z,50.96
2023-03-21T18:39:38.042Z,51.02
2023-03-21T18:42:07.140Z,51.14
2023-03-21T18:44:45.564Z,51.03
2023-03-21T18:47:14.459Z,51.03
2023-03-21T18:52:32.172Z,51.72
2023-03-21T18:55:00.737Z,52.07
2023-03-21T18:57:36.956Z,52.35
2023-03-21T19:00:18.749Z,52.68
2023-03-21T19:02:50.683Z,52.78
2023-03-21T19:05:22.756Z,52.92
2023-03-21T19:07:51.977Z,53.15
2023-03-21T19:10:21.991Z,53.20
2023-03-21T19:12:52.868Z,53.41
2023-03-21T19:15:21.945Z,53.67
2023-03-21T19:20:45.570Z,53.94
2023-03-21T19:23:16.997Z,54.00
2023-03-21T19:25:45.727Z,54.14
2023-03-21T19:28:15.874Z,54.32
2023-03-21T19:30:50.076Z,54.54
2023-03-21T19:33:24.556Z,54.75
2023-03-21T19:36:10.698Z,54.83
2023-03-21T19:38:41.540Z,54.90
2023-03-21T19:41:10.096Z,54.94
2023-03-21T19:43:40.142Z,55.11
2023-03-21T19:46:11.347Z,55.23
2023-03-21T19:48:41.887Z,55.28
2023-03-21T19:51:27.490Z,55.35
2023-03-21T19:53:58.219Z,55.35
2023-03-21T19:56:27.676Z,55.49
2023-03-21T19:58:56.727Z,55.79
2023-03-21T20:01:25.420Z,55.95
2023-03-21T20:03:56.868Z,56.04
2023-03-21T20:06:26.892Z,56.24
2023-03-21T20:09:37.986Z,56.50
2023-03-21T20:11:47.287Z,56.49
2023-03-21T20:14:21.596Z,56.54
2023-03-21T20:16:51.472Z,56.59
2023-03-21T20:19:20.365Z,56.62
2023-03-21T20:21:57.937Z,56.52
2023-03-21T20:24:36.838Z,56.56
2023-03-21T20:27:06.467Z,56.45
2023-03-21T20:30:08.207Z,56.31
2023-03-21T20:32:27.450Z,56.36
2023-03-21T20:35:07.392Z,56.40
2023-03-21T20:37:48.414Z,56.40
2023-03-21T20:40:19.414Z,56.49
2023-03-21T20:42:49.135Z,56.60
2023-03-21T20:45:32.089Z,56.63
2023-03-21T20:48:00.497Z,56.63
2023-03-21T20:50:33.176Z,56.71
2023-03-21T20:53:07.389Z,56.82
2023-03-21T20:55:37.330Z,57.03
2023-03-21T20:58:27.222Z,57.16
2023-03-21T21:01:04.867Z,57.09
2023-03-21T21:03:42.589Z,57.12
2023-03-21T21:06:19.974Z,57.15
2023-03-21T21:08:52.274Z,57.28
2023-03-21T21:12:05.237Z,57.37
2023-03-21T21:14:09.371Z,57.22
2023-03-21T21:16:42.347Z,57.21
2023-03-21T21:19:13.026Z,57.35
2023-03-21T21:21:42.686Z,57.46
2023-03-21T21:24:14.612Z,57.55
2023-03-21T21:26:48.954Z,57.62
2023-03-21T21:29:20.657Z,57.59
2023-03-21T21:31:51.927Z,57.61
2023-03-21T21:34:20.827Z,57.69
2023-03-21T21:36:51.294Z,57.78
2023-03-21T21:39:21.997Z,57.84
2023-03-21T21:41:50.089Z,57.98
2023-03-21T21:44:19.782Z,58.03
2023-03-21T21:46:47.964Z,58.16
2023-03-21T21:49:17.764Z,58.23
2023-03-21T21:51:48.149Z,58.32
2023-03-21T21:54:18.478Z,58.26
2023-03-21T21:56:54.266Z,58.27
2023-03-21T21:59:26.016Z,58.30
2023-03-21T22:01:58.864Z,58.33
2023-03-21T22:04:28.683Z,58.40
2023-03-21T22:06:58.316Z,58.35
2023-03-21T22:09:27.528Z,58.38
2023-03-21T22:12:00.449Z,58.53
2023-03-21T22:14:30.787Z,58.55
2023-03-21T22:17:00.401Z,58.44
2023-03-21T22:19:31.937Z,58.53
2023-03-21T22:30:07.437Z,58.87
2023-03-21T22:32:37.669Z,58.71
2023-03-21T22:35:08.729Z,58.77
2023-03-21T22:37:41.938Z,58.65
2023-03-21T22:40:10.886Z,58.68
2023-03-21T22:42:46.789Z,58.75
2023-03-21T22:45:14.085Z,58.78
2023-03-21T22:47:45.305Z,59.00
2023-03-21T22:50:18.804Z,59.15
2023-03-21T22:52:53.909Z,59.32
2023-03-21T22:55:24.384Z,59.45
2023-03-21T22:57:52.017Z,59.54
2023-03-21T23:00:19.524Z,59.70
2023-03-21T23:02:47.921Z,59.78
2023-03-21T23:05:15.167Z,59.97
2023-03-21T23:07:44.723Z,59.95
2023-03-21T23:10:12.729Z,60.06
2023-03-21T23:12:39.591Z,60.22
2023-03-21T23:15:09.225Z,60.39
2023-03-21T23:17:37.358Z,60.46
2023-03-21T23:20:08.017Z,60.65
2023-03-21T23:22:39.142Z,60.87
2023-03-21T23:25:06.927Z,60.98
2023-03-21T23:27:34.742Z,61.02
2023-03-21T23:30:07.055Z,61.02
2023-03-21T23:32:34.365Z,60.98
2023-03-21T23:35:12.503Z,60.89
2023-03-21T23:37:41.720Z,60.91
2023-03-21T23:40:09.865Z,60.90
2023-03-21T23:42:36.781Z,60.95
2023-03-21T23:45:04.134Z,60.75
2023-03-21T23:47:32.054Z,60.71
2023-03-21T23:49:59.173Z,60.84
2023-03-21T23:52:29.306Z,60.85
2023-03-21T23:54:56.420Z,60.98
2023-03-21T23:57:23.143Z,61.02
2023-03-21T23:59:52.882Z,61.16
